sensor_id;sensor_type;location;lat;lon;timestamp;P1;durP1;ratioP1;P2;durP2;ratioP2
35330;SDS011;21441;52.190;20.910;2023-02-26T00:00:39;5.13;;;3.28;;
35330;SDS011;21441;52.190;20.910;2023-02-26T00:03:26;6.03;;;2.83;;
35330;SDS011;21441;52.190;20.910;2023-02-26T00:05:57;4.57;;;2.90;;
35330;SDS011;21441;52.190;20.910;2023-02-26T00:08:27;4.45;;;2.92;;
35330;SDS011;21441;52.190;20.910;2023-02-26T00:10:55;4.15;;;2.75;;
35330;SDS011;21441;52.190;20.910;2023-02-26T00:13:25;5.57;;;2.97;;
35330;SDS011;21441;52.190;20.910;2023-02-26T00:15:54;5.20;;;3.05;;
35330;SDS011;21441;52.190;20.910;2023-02-26T00:18:25;6.15;;;3.38;;
35330;SDS011;21441;52.190;20.910;2023-02-26T00:20:53;4.05;;;2.88;;
35330;SDS011;21441;52.190;20.910;2023-02-26T00:23:22;3.97;;;2.20;;
35330;SDS011;21441;52.190;20.910;2023-02-26T00:25:51;3.70;;;2.95;;
35330;SDS011;21441;52.190;20.910;2023-02-26T00:28:18;3.30;;;2.45;;
35330;SDS011;21441;52.190;20.910;2023-02-26T00:30:46;3.78;;;2.30;;
35330;SDS011;21441;52.190;20.910;2023-02-26T00:33:14;3.28;;;2.20;;
35330;SDS011;21441;52.190;20.910;2023-02-26T00:35:42;2.30;;;1.83;;
35330;SDS011;21441;52.190;20.910;2023-02-26T00:38:10;2.17;;;1.90;;
35330;SDS011;21441;52.190;20.910;2023-02-26T00:40:43;4.10;;;3.60;;
35330;SDS011;21441;52.190;20.910;2023-02-26T00:43:14;4.72;;;2.70;;
35330;SDS011;21441;52.190;20.910;2023-02-26T00:45:45;3.10;;;2.08;;
35330;SDS011;21441;52.190;20.910;2023-02-26T00:48:30;3.55;;;2.20;;
35330;SDS011;21441;52.190;20.910;2023-02-26T00:51:06;2.00;;;1.80;;
35330;SDS011;21441;52.190;20.910;2023-02-26T00:53:41;2.53;;;2.05;;
35330;SDS011;21441;52.190;20.910;2023-02-26T00:56:13;2.08;;;1.70;;
35330;SDS011;21441;52.190;20.910;2023-02-26T00:58:42;3.25;;;1.98;;
35330;SDS011;21441;52.190;20.910;2023-02-26T01:01:10;2.42;;;1.92;;
35330;SDS011;21441;52.190;20.910;2023-02-26T01:03:37;1.83;;;1.70;;
35330;SDS011;21441;52.190;20.910;2023-02-26T01:06:08;2.00;;;1.80;;
35330;SDS011;21441;52.190;20.910;2023-02-26T01:08:39;2.75;;;2.20;;
35330;SDS011;21441;52.190;20.910;2023-02-26T01:11:14;2.90;;;1.80;;
35330;SDS011;21441;52.190;20.910;2023-02-26T01:13:43;2.30;;;1.88;;
35330;SDS011;21441;52.190;20.910;2023-02-26T01:16:12;3.60;;;2.10;;
35330;SDS011;21441;52.190;20.910;2023-02-26T01:18:47;3.00;;;2.33;;
35330;SDS011;21441;52.190;20.910;2023-02-26T01:21:26;2.05;;;1.85;;
35330;SDS011;21441;52.190;20.910;2023-02-26T01:23:59;3.45;;;1.77;;
35330;SDS011;21441;52.190;20.910;2023-02-26T01:26:31;3.63;;;1.73;;
35330;SDS011;21441;52.190;20.910;2023-02-26T01:29:00;3.03;;;2.05;;
35330;SDS011;21441;52.190;20.910;2023-02-26T01:31:31;2.60;;;2.00;;
35330;SDS011;21441;52.190;20.910;2023-02-26T01:34:05;2.95;;;2.20;;
35330;SDS011;21441;52.190;20.910;2023-02-26T01:36:39;2.50;;;2.00;;
35330;SDS011;21441;52.190;20.910;2023-02-26T01:39:15;2.53;;;2.03;;
35330;SDS011;21441;52.190;20.910;2023-02-26T01:41:50;2.47;;;2.28;;
35330;SDS011;21441;52.190;20.910;2023-02-26T01:44:25;3.10;;;2.25;;
35330;SDS011;21441;52.190;20.910;2023-02-26T01:47:08;3.15;;;2.35;;
35330;SDS011;21441;52.190;20.910;2023-02-26T01:49:43;2.75;;;2.10;;
35330;SDS011;21441;52.190;20.910;2023-02-26T01:55:30;3.33;;;2.40;;
35330;SDS011;21441;52.190;20.910;2023-02-26T01:57:58;2.72;;;2.00;;
35330;SDS011;21441;52.190;20.910;2023-02-26T02:00:30;2.63;;;2.00;;
35330;SDS011;21441;52.190;20.910;2023-02-26T02:02:57;4.20;;;2.90;;
35330;SDS011;21441;52.190;20.910;2023-02-26T02:05:26;3.30;;;2.03;;
35330;SDS011;21441;52.190;20.910;2023-02-26T02:07:58;3.33;;;2.42;;
35330;SDS011;21441;52.190;20.910;2023-02-26T02:10:26;3.53;;;2.50;;
35330;SDS011;21441;52.190;20.910;2023-02-26T02:12:55;3.45;;;3.08;;
35330;SDS011;21441;52.190;20.910;2023-02-26T02:15:36;3.17;;;2.47;;
35330;SDS011;21441;52.190;20.910;2023-02-26T02:18:13;3.15;;;2.63;;
35330;SDS011;21441;52.190;20.910;2023-02-26T02:23:39;3.10;;;2.80;;
35330;SDS011;21441;52.190;20.910;2023-02-26T02:26:15;3.78;;;2.70;;
35330;SDS011;21441;52.190;20.910;2023-02-26T02:29:02;5.40;;;3.55;;
35330;SDS011;21441;52.190;20.910;2023-02-26T02:31:53;3.15;;;2.60;;
35330;SDS011;21441;52.190;20.910;2023-02-26T02:34:25;5.95;;;2.55;;
35330;SDS011;21441;52.190;20.910;2023-02-26T02:37:00;2.95;;;2.58;;
35330;SDS011;21441;52.190;20.910;2023-02-26T02:39:31;4.07;;;3.00;;
35330;SDS011;21441;52.190;20.910;2023-02-26T02:42:03;3.70;;;2.88;;
35330;SDS011;21441;52.190;20.910;2023-02-26T02:44:35;2.97;;;2.38;;
35330;SDS011;21441;52.190;20.910;2023-02-26T02:47:06;3.95;;;2.75;;
35330;SDS011;21441;52.190;20.910;2023-02-26T02:49:37;4.13;;;2.50;;
35330;SDS011;21441;52.190;20.910;2023-02-26T02:52:10;3.83;;;2.90;;
35330;SDS011;21441;52.190;20.910;2023-02-26T02:54:44;3.63;;;2.40;;
35330;SDS011;21441;52.190;20.910;2023-02-26T02:57:16;3.85;;;2.83;;
35330;SDS011;21441;52.190;20.910;2023-02-26T02:59:47;3.28;;;2.22;;
35330;SDS011;21441;52.190;20.910;2023-02-26T03:02:22;3.83;;;2.45;;
35330;SDS011;21441;52.190;20.910;2023-02-26T03:04:58;4.45;;;2.47;;
35330;SDS011;21441;52.190;20.910;2023-02-26T03:07:25;4.50;;;2.72;;
35330;SDS011;21441;52.190;20.910;2023-02-26T03:09:54;3.53;;;2.75;;
35330;SDS011;21441;52.190;20.910;2023-02-26T03:12:24;2.50;;;2.30;;
35330;SDS011;21441;52.190;20.910;2023-02-26T03:14:51;3.47;;;2.65;;
35330;SDS011;21441;52.190;20.910;2023-02-26T03:17:20;3.55;;;2.58;;
35330;SDS011;21441;52.190;20.910;2023-02-26T03:20:08;5.18;;;2.63;;
35330;SDS011;21441;52.190;20.910;2023-02-26T03:22:45;3.45;;;3.00;;
35330;SDS011;21441;52.190;20.910;2023-02-26T03:25:17;2.95;;;2.42;;
35330;SDS011;21441;52.190;20.910;2023-02-26T03:27:52;3.10;;;2.30;;
35330;SDS011;21441;52.190;20.910;2023-02-26T03:30:24;3.85;;;2.28;;
35330;SDS011;21441;52.190;20.910;2023-02-26T03:33:01;4.10;;;2.40;;
35330;SDS011;21441;52.190;20.910;2023-02-26T03:35:37;5.25;;;2.72;;
35330;SDS011;21441;52.190;20.910;2023-02-26T03:38:15;3.78;;;2.65;;
35330;SDS011;21441;52.190;20.910;2023-02-26T03:40:50;3.17;;;2.80;;
35330;SDS011;21441;52.190;20.910;2023-02-26T03:43:23;3.83;;;2.38;;
35330;SDS011;21441;52.190;20.910;2023-02-26T03:46:00;4.45;;;2.70;;
35330;SDS011;21441;52.190;20.910;2023-02-26T03:48:34;3.13;;;2.20;;
35330;SDS011;21441;52.190;20.910;2023-02-26T03:51:02;2.70;;;2.50;;
35330;SDS011;21441;52.190;20.910;2023-02-26T03:53:35;3.60;;;2.92;;
35330;SDS011;21441;52.190;20.910;2023-02-26T03:56:10;3.65;;;2.90;;
35330;SDS011;21441;52.190;20.910;2023-02-26T03:58:42;3.90;;;2.78;;
35330;SDS011;21441;52.190;20.910;2023-02-26T04:01:12;6.47;;;2.70;;
35330;SDS011;21441;52.190;20.910;2023-02-26T04:03:45;4.63;;;2.95;;
35330;SDS011;21441;52.190;20.910;2023-02-26T04:06:15;3.33;;;2.85;;
35330;SDS011;21441;52.190;20.910;2023-02-26T04:08:45;3.13;;;2.38;;
35330;SDS011;21441;52.190;20.910;2023-02-26T04:11:14;3.13;;;2.70;;
35330;SDS011;21441;52.190;20.910;2023-02-26T04:13:44;4.68;;;2.80;;
35330;SDS011;21441;52.190;20.910;2023-02-26T04:16:12;3.70;;;2.78;;
35330;SDS011;21441;52.190;20.910;2023-02-26T04:18:40;4.03;;;3.08;;
35330;SDS011;21441;52.190;20.910;2023-02-26T04:21:11;4.10;;;2.55;;
35330;SDS011;21441;52.190;20.910;2023-02-26T04:23:39;4.20;;;2.78;;
35330;SDS011;21441;52.190;20.910;2023-02-26T04:26:07;4.43;;;2.55;;
35330;SDS011;21441;52.190;20.910;2023-02-26T04:28:34;4.28;;;3.08;;
35330;SDS011;21441;52.190;20.910;2023-02-26T04:31:02;3.35;;;2.90;;
35330;SDS011;21441;52.190;20.910;2023-02-26T04:33:30;4.25;;;3.17;;
35330;SDS011;21441;52.190;20.910;2023-02-26T04:35:58;4.80;;;3.35;;
35330;SDS011;21441;52.190;20.910;2023-02-26T04:38:27;4.40;;;2.80;;
35330;SDS011;21441;52.190;20.910;2023-02-26T04:40:54;3.75;;;2.67;;
35330;SDS011;21441;52.190;20.910;2023-02-26T04:43:22;5.63;;;3.60;;
35330;SDS011;21441;52.190;20.910;2023-02-26T04:45:49;4.65;;;3.13;;
35330;SDS011;21441;52.190;20.910;2023-02-26T04:48:17;3.90;;;3.38;;
35330;SDS011;21441;52.190;20.910;2023-02-26T04:50:44;4.65;;;3.20;;
35330;SDS011;21441;52.190;20.910;2023-02-26T04:53:12;4.70;;;3.45;;
35330;SDS011;21441;52.190;20.910;2023-02-26T04:55:41;5.32;;;3.10;;
35330;SDS011;21441;52.190;20.910;2023-02-26T04:58:09;3.80;;;2.78;;
35330;SDS011;21441;52.190;20.910;2023-02-26T05:00:37;5.63;;;3.30;;
35330;SDS011;21441;52.190;20.910;2023-02-26T05:03:06;5.72;;;3.65;;
35330;SDS011;21441;52.190;20.910;2023-02-26T05:05:34;4.57;;;2.83;;
35330;SDS011;21441;52.190;20.910;2023-02-26T05:08:02;3.90;;;2.65;;
35330;SDS011;21441;52.190;20.910;2023-02-26T05:10:29;5.25;;;3.20;;
35330;SDS011;21441;52.190;20.910;2023-02-26T05:12:58;2.88;;;2.25;;
35330;SDS011;21441;52.190;20.910;2023-02-26T05:15:26;7.65;;;4.78;;
35330;SDS011;21441;52.190;20.910;2023-02-26T05:17:53;4.90;;;3.10;;
35330;SDS011;21441;52.190;20.910;2023-02-26T05:20:21;3.03;;;2.60;;
35330;SDS011;21441;52.190;20.910;2023-02-26T05:22:48;3.97;;;2.70;;
35330;SDS011;21441;52.190;20.910;2023-02-26T05:25:16;5.00;;;2.55;;
35330;SDS011;21441;52.190;20.910;2023-02-26T05:27:43;4.35;;;2.45;;
35330;SDS011;21441;52.190;20.910;2023-02-26T05:30:13;2.65;;;1.95;;
35330;SDS011;21441;52.190;20.910;2023-02-26T05:32:42;3.03;;;2.42;;
35330;SDS011;21441;52.190;20.910;2023-02-26T05:35:10;3.88;;;2.53;;
35330;SDS011;21441;52.190;20.910;2023-02-26T05:37:38;2.70;;;2.08;;
35330;SDS011;21441;52.190;20.910;2023-02-26T05:40:06;3.95;;;2.35;;
35330;SDS011;21441;52.190;20.910;2023-02-26T05:42:36;3.45;;;2.42;;
35330;SDS011;21441;52.190;20.910;2023-02-26T05:45:03;4.18;;;2.30;;
35330;SDS011;21441;52.190;20.910;2023-02-26T05:47:33;2.30;;;2.08;;
35330;SDS011;21441;52.190;20.910;2023-02-26T05:50:01;2.47;;;2.15;;
35330;SDS011;21441;52.190;20.910;2023-02-26T05:52:29;4.85;;;2.50;;
35330;SDS011;21441;52.190;20.910;2023-02-26T05:54:56;2.67;;;2.08;;
35330;SDS011;21441;52.190;20.910;2023-02-26T05:57:24;3.78;;;2.10;;
35330;SDS011;21441;52.190;20.910;2023-02-26T05:59:51;2.47;;;1.67;;
35330;SDS011;21441;52.190;20.910;2023-02-26T06:02:18;2.45;;;2.00;;
35330;SDS011;21441;52.190;20.910;2023-02-26T06:04:47;3.10;;;1.50;;
35330;SDS011;21441;52.190;20.910;2023-02-26T06:07:15;1.90;;;1.20;;
35330;SDS011;21441;52.190;20.910;2023-02-26T06:09:42;1.95;;;1.20;;
35330;SDS011;21441;52.190;20.910;2023-02-26T06:12:09;1.75;;;1.38;;
35330;SDS011;21441;52.190;20.910;2023-02-26T06:14:37;2.00;;;1.23;;
35330;SDS011;21441;52.190;20.910;2023-02-26T06:17:04;1.40;;;1.30;;
35330;SDS011;21441;52.190;20.910;2023-02-26T06:19:32;2.03;;;1.80;;
35330;SDS011;21441;52.190;20.910;2023-02-26T06:22:01;1.15;;;0.93;;
35330;SDS011;21441;52.190;20.910;2023-02-26T06:24:29;1.13;;;1.02;;
35330;SDS011;21441;52.190;20.910;2023-02-26T06:26:56;1.65;;;1.15;;
35330;SDS011;21441;52.190;20.910;2023-02-26T06:29:23;2.28;;;1.10;;
35330;SDS011;21441;52.190;20.910;2023-02-26T06:31:51;1.23;;;1.05;;
35330;SDS011;21441;52.190;20.910;2023-02-26T06:34:18;1.27;;;1.02;;
35330;SDS011;21441;52.190;20.910;2023-02-26T06:36:47;3.53;;;1.83;;
35330;SDS011;21441;52.190;20.910;2023-02-26T06:39:16;1.33;;;1.23;;
35330;SDS011;21441;52.190;20.910;2023-02-26T06:41:43;1.80;;;1.23;;
35330;SDS011;21441;52.190;20.910;2023-02-26T06:44:11;2.05;;;1.55;;
35330;SDS011;21441;52.190;20.910;2023-02-26T06:46:38;1.67;;;1.42;;
35330;SDS011;21441;52.190;20.910;2023-02-26T06:49:06;1.48;;;1.35;;
35330;SDS011;21441;52.190;20.910;2023-02-26T06:51:34;1.75;;;1.60;;
35330;SDS011;21441;52.190;20.910;2023-02-26T06:54:01;3.13;;;1.70;;
35330;SDS011;21441;52.190;20.910;2023-02-26T06:56:30;1.77;;;1.25;;
35330;SDS011;21441;52.190;20.910;2023-02-26T06:58:58;1.65;;;1.40;;
35330;SDS011;21441;52.190;20.910;2023-02-26T07:01:25;1.75;;;1.45;;
35330;SDS011;21441;52.190;20.910;2023-02-26T07:03:53;1.90;;;1.40;;
35330;SDS011;21441;52.190;20.910;2023-02-26T07:06:20;2.40;;;1.30;;
35330;SDS011;21441;52.190;20.910;2023-02-26T07:08:47;1.60;;;1.23;;
35330;SDS011;21441;52.190;20.910;2023-02-26T07:11:15;1.55;;;1.40;;
35330;SDS011;21441;52.190;20.910;2023-02-26T07:13:44;2.10;;;1.50;;
35330;SDS011;21441;52.190;20.910;2023-02-26T07:16:11;2.03;;;1.48;;
35330;SDS011;21441;52.190;20.910;2023-02-26T07:18:38;2.60;;;1.70;;
35330;SDS011;21441;52.190;20.910;2023-02-26T07:21:06;2.20;;;1.90;;
35330;SDS011;21441;52.190;20.910;2023-02-26T07:23:33;1.83;;;1.35;;
35330;SDS011;21441;52.190;20.910;2023-02-26T07:26:01;4.97;;;1.70;;
35330;SDS011;21441;52.190;20.910;2023-02-26T07:28:28;1.83;;;1.30;;
35330;SDS011;21441;52.190;20.910;2023-02-26T07:30:57;1.95;;;1.52;;
35330;SDS011;21441;52.190;20.910;2023-02-26T07:33:24;1.50;;;1.30;;
35330;SDS011;21441;52.190;20.910;2023-02-26T07:35:53;2.63;;;2.35;;
35330;SDS011;21441;52.190;20.910;2023-02-26T07:38:20;3.90;;;1.50;;
35330;SDS011;21441;52.190;20.910;2023-02-26T07:40:48;3.03;;;1.50;;
35330;SDS011;21441;52.190;20.910;2023-02-26T07:43:15;2.88;;;1.80;;
35330;SDS011;21441;52.190;20.910;2023-02-26T07:45:42;2.45;;;1.50;;
35330;SDS011;21441;52.190;20.910;2023-02-26T07:48:11;2.03;;;1.45;;
35330;SDS011;21441;52.190;20.910;2023-02-26T07:50:39;2.38;;;1.80;;
35330;SDS011;21441;52.190;20.910;2023-02-26T07:53:06;2.55;;;1.40;;
35330;SDS011;21441;52.190;20.910;2023-02-26T07:55:34;1.65;;;1.38;;
35330;SDS011;21441;52.190;20.910;2023-02-26T07:58:01;2.85;;;1.80;;
35330;SDS011;21441;52.190;20.910;2023-02-26T08:00:29;2.22;;;1.58;;
35330;SDS011;21441;52.190;20.910;2023-02-26T08:02:56;1.48;;;1.30;;
35330;SDS011;21441;52.190;20.910;2023-02-26T08:05:25;2.88;;;1.55;;
35330;SDS011;21441;52.190;20.910;2023-02-26T08:07:52;3.17;;;1.60;;
35330;SDS011;21441;52.190;20.910;2023-02-26T08:10:20;1.80;;;1.60;;
35330;SDS011;21441;52.190;20.910;2023-02-26T08:12:47;2.00;;;1.50;;
35330;SDS011;21441;52.190;20.910;2023-02-26T08:15:15;2.03;;;1.48;;
35330;SDS011;21441;52.190;20.910;2023-02-26T08:17:42;2.00;;;1.60;;
35330;SDS011;21441;52.190;20.910;2023-02-26T08:20:10;1.58;;;1.48;;
35330;SDS011;21441;52.190;20.910;2023-02-26T08:22:41;1.52;;;1.42;;
35330;SDS011;21441;52.190;20.910;2023-02-26T08:25:08;1.30;;;1.10;;
35330;SDS011;21441;52.190;20.910;2023-02-26T08:27:37;2.05;;;1.50;;
35330;SDS011;21441;52.190;20.910;2023-02-26T08:30:05;2.63;;;1.60;;
35330;SDS011;21441;52.190;20.910;2023-02-26T08:32:33;2.95;;;1.50;;
35330;SDS011;21441;52.190;20.910;2023-02-26T08:35:01;2.97;;;2.10;;
35330;SDS011;21441;52.190;20.910;2023-02-26T08:37:28;1.50;;;1.38;;
35330;SDS011;21441;52.190;20.910;2023-02-26T08:39:57;1.67;;;1.42;;
35330;SDS011;21441;52.190;20.910;2023-02-26T08:42:24;1.80;;;1.27;;
35330;SDS011;21441;52.190;20.910;2023-02-26T08:44:52;1.45;;;1.30;;
35330;SDS011;21441;52.190;20.910;2023-02-26T08:47:19;3.22;;;1.85;;
35330;SDS011;21441;52.190;20.910;2023-02-26T08:49:47;1.02;;;0.98;;
35330;SDS011;21441;52.190;20.910;2023-02-26T08:52:14;1.88;;;1.35;;
35330;SDS011;21441;52.190;20.910;2023-02-26T08:54:42;3.38;;;1.20;;
35330;SDS011;21441;52.190;20.910;2023-02-26T08:57:10;1.60;;;1.50;;
35330;SDS011;21441;52.190;20.910;2023-02-26T08:59:38;2.10;;;1.55;;
35330;SDS011;21441;52.190;20.910;2023-02-26T09:02:06;3.47;;;1.33;;
35330;SDS011;21441;52.190;20.910;2023-02-26T09:04:33;1.98;;;1.70;;
35330;SDS011;21441;52.190;20.910;2023-02-26T09:07:01;1.50;;;1.40;;
35330;SDS011;21441;52.190;20.910;2023-02-26T09:09:28;1.70;;;1.30;;
35330;SDS011;21441;52.190;20.910;2023-02-26T09:11:55;1.52;;;1.20;;
35330;SDS011;21441;52.190;20.910;2023-02-26T09:14:25;2.08;;;1.02;;
35330;SDS011;21441;52.190;20.910;2023-02-26T09:16:52;1.90;;;1.15;;
35330;SDS011;21441;52.190;20.910;2023-02-26T09:19:20;1.85;;;1.17;;
35330;SDS011;21441;52.190;20.910;2023-02-26T09:21:47;1.52;;;1.10;;
35330;SDS011;21441;52.190;20.910;2023-02-26T09:24:15;1.20;;;0.98;;
35330;SDS011;21441;52.190;20.910;2023-02-26T09:26:42;1.65;;;1.15;;
35330;SDS011;21441;52.190;20.910;2023-02-26T09:29:10;1.23;;;0.90;;
35330;SDS011;21441;52.190;20.910;2023-02-26T09:31:40;1.30;;;1.17;;
35330;SDS011;21441;52.190;20.910;2023-02-26T09:34:07;1.67;;;1.40;;
35330;SDS011;21441;52.190;20.910;2023-02-26T09:36:35;2.45;;;1.63;;
35330;SDS011;21441;52.190;20.910;2023-02-26T09:39:03;1.50;;;1.40;;
35330;SDS011;21441;52.190;20.910;2023-02-26T09:41:31;1.92;;;1.50;;
35330;SDS011;21441;52.190;20.910;2023-02-26T09:44:15;1.40;;;1.10;;
35330;SDS011;21441;52.190;20.910;2023-02-26T09:46:52;1.92;;;1.40;;
35330;SDS011;21441;52.190;20.910;2023-02-26T09:52:21;1.25;;;1.10;;
35330;SDS011;21441;52.190;20.910;2023-02-26T09:54:53;1.70;;;1.45;;
35330;SDS011;21441;52.190;20.910;2023-02-26T09:57:30;1.98;;;1.70;;
35330;SDS011;21441;52.190;20.910;2023-02-26T10:00:00;2.10;;;1.55;;
35330;SDS011;21441;52.190;20.910;2023-02-26T10:02:35;2.35;;;1.52;;
35330;SDS011;21441;52.190;20.910;2023-02-26T10:05:14;2.65;;;2.45;;
35330;SDS011;21441;52.190;20.910;2023-02-26T10:07:47;2.33;;;1.67;;
35330;SDS011;21441;52.190;20.910;2023-02-26T10:10:24;2.00;;;1.80;;
35330;SDS011;21441;52.190;20.910;2023-02-26T10:12:58;2.28;;;1.58;;
35330;SDS011;21441;52.190;20.910;2023-02-26T10:15:27;1.60;;;1.50;;
35330;SDS011;21441;52.190;20.910;2023-02-26T10:18:03;2.95;;;2.00;;
35330;SDS011;21441;52.190;20.910;2023-02-26T10:20:36;2.65;;;1.60;;
35330;SDS011;21441;52.190;20.910;2023-02-26T10:23:11;2.33;;;2.13;;
35330;SDS011;21441;52.190;20.910;2023-02-26T10:25:47;2.72;;;2.03;;
35330;SDS011;21441;52.190;20.910;2023-02-26T10:28:32;2.47;;;1.67;;
35330;SDS011;21441;52.190;20.910;2023-02-26T10:31:07;1.77;;;1.67;;
35330;SDS011;21441;52.190;20.910;2023-02-26T10:33:44;2.67;;;1.80;;
35330;SDS011;21441;52.190;20.910;2023-02-26T10:36:18;2.40;;;1.92;;
35330;SDS011;21441;52.190;20.910;2023-02-26T10:38:51;4.35;;;1.80;;
35330;SDS011;21441;52.190;20.910;2023-02-26T10:41:25;2.53;;;1.90;;
35330;SDS011;21441;52.190;20.910;2023-02-26T10:43:57;4.25;;;2.65;;
35330;SDS011;21441;52.190;20.910;2023-02-26T10:46:37;2.65;;;2.00;;
35330;SDS011;21441;52.190;20.910;2023-02-26T10:52:10;4.65;;;2.10;;
35330;SDS011;21441;52.190;20.910;2023-02-26T10:54:40;3.53;;;1.58;;
35330;SDS011;21441;52.190;20.910;2023-02-26T10:57:17;2.67;;;1.80;;
35330;SDS011;21441;52.190;20.910;2023-02-26T10:59:50;3.58;;;2.20;;
35330;SDS011;21441;52.190;20.910;2023-02-26T11:02:26;2.17;;;1.88;;
35330;SDS011;21441;52.190;20.910;2023-02-26T11:05:02;3.05;;;2.05;;
35330;SDS011;21441;52.190;20.910;2023-02-26T11:07:31;3.78;;;2.13;;
35330;SDS011;21441;52.190;20.910;2023-02-26T11:10:02;3.70;;;2.38;;
35330;SDS011;21441;52.190;20.910;2023-02-26T11:12:30;2.42;;;1.90;;
35330;SDS011;21441;52.190;20.910;2023-02-26T11:14:59;3.90;;;1.90;;
35330;SDS011;21441;52.190;20.910;2023-02-26T11:17:28;1.88;;;1.60;;
35330;SDS011;21441;52.190;20.910;2023-02-26T11:19:58;1.98;;;1.77;;
35330;SDS011;21441;52.190;20.910;2023-02-26T11:22:32;3.05;;;1.73;;
35330;SDS011;21441;52.190;20.910;2023-02-26T11:25:01;1.77;;;1.55;;
35330;SDS011;21441;52.190;20.910;2023-02-26T11:27:31;1.92;;;1.30;;
35330;SDS011;21441;52.190;20.910;2023-02-26T11:30:03;1.70;;;1.48;;
35330;SDS011;21441;52.190;20.910;2023-02-26T11:32:34;1.52;;;1.20;;
35330;SDS011;21441;52.190;20.910;2023-02-26T11:35:06;2.92;;;1.58;;
35330;SDS011;21441;52.190;20.910;2023-02-26T11:37:37;1.25;;;1.15;;
35330;SDS011;21441;52.190;20.910;2023-02-26T11:40:06;2.42;;;1.27;;
35330;SDS011;21441;52.190;20.910;2023-02-26T11:42:43;2.15;;;1.63;;
35330;SDS011;21441;52.190;20.910;2023-02-26T11:45:17;1.85;;;1.15;;
35330;SDS011;21441;52.190;20.910;2023-02-26T11:47:46;1.42;;;1.30;;
35330;SDS011;21441;52.190;20.910;2023-02-26T11:50:18;1.48;;;1.30;;
35330;SDS011;21441;52.190;20.910;2023-02-26T11:52:55;1.48;;;1.15;;
35330;SDS011;21441;52.190;20.910;2023-02-26T11:55:31;1.92;;;1.15;;
35330;SDS011;21441;52.190;20.910;2023-02-26T11:58:03;1.75;;;1.60;;
35330;SDS011;21441;52.190;20.910;2023-02-26T12:00:42;4.80;;;1.40;;
35330;SDS011;21441;52.190;20.910;2023-02-26T12:03:14;2.00;;;1.30;;
35330;SDS011;21441;52.190;20.910;2023-02-26T12:05:43;1.67;;;1.40;;
35330;SDS011;21441;52.190;20.910;2023-02-26T12:08:15;2.17;;;1.63;;
35330;SDS011;21441;52.190;20.910;2023-02-26T12:10:47;2.00;;;1.70;;
35330;SDS011;21441;52.190;20.910;2023-02-26T12:13:26;2.60;;;1.80;;
35330;SDS011;21441;52.190;20.910;2023-02-26T12:16:02;1.85;;;1.60;;
35330;SDS011;21441;52.190;20.910;2023-02-26T12:18:44;2.53;;;2.15;;
35330;SDS011;21441;52.190;20.910;2023-02-26T12:21:24;2.67;;;1.75;;
35330;SDS011;21441;52.190;20.910;2023-02-26T12:27:17;2.95;;;1.58;;
35330;SDS011;21441;52.190;20.910;2023-02-26T12:30:01;2.13;;;1.70;;
35330;SDS011;21441;52.190;20.910;2023-02-26T12:32:42;2.85;;;1.85;;
35330;SDS011;21441;52.190;20.910;2023-02-26T12:35:36;3.97;;;2.75;;
35330;SDS011;21441;52.190;20.910;2023-02-26T12:38:13;2.60;;;1.60;;
35330;SDS011;21441;52.190;20.910;2023-02-26T12:40:59;3.78;;;1.70;;
35330;SDS011;21441;52.190;20.910;2023-02-26T12:43:40;3.65;;;1.88;;
35330;SDS011;21441;52.190;20.910;2023-02-26T12:46:15;4.05;;;1.88;;
35330;SDS011;21441;52.190;20.910;2023-02-26T12:52:02;2.83;;;1.55;;
35330;SDS011;21441;52.190;20.910;2023-02-26T12:54:57;2.45;;;1.95;;
35330;SDS011;21441;52.190;20.910;2023-02-26T13:00:41;2.53;;;1.60;;
35330;SDS011;21441;52.190;20.910;2023-02-26T13:03:29;3.05;;;2.20;;
35330;SDS011;21441;52.190;20.910;2023-02-26T13:06:22;2.47;;;1.40;;
35330;SDS011;21441;52.190;20.910;2023-02-26T13:09:06;2.55;;;1.38;;
35330;SDS011;21441;52.190;20.910;2023-02-26T13:11:46;1.40;;;1.30;;
35330;SDS011;21441;52.190;20.910;2023-02-26T13:17:02;2.65;;;1.30;;
35330;SDS011;21441;52.190;20.910;2023-02-26T13:19:37;3.33;;;1.77;;
35330;SDS011;21441;52.190;20.910;2023-02-26T13:22:13;2.55;;;1.20;;
35330;SDS011;21441;52.190;20.910;2023-02-26T13:24:48;2.97;;;1.50;;
35330;SDS011;21441;52.190;20.910;2023-02-26T13:27:19;2.25;;;1.27;;
35330;SDS011;21441;52.190;20.910;2023-02-26T13:29:54;3.17;;;1.83;;
35330;SDS011;21441;52.190;20.910;2023-02-26T13:32:32;1.98;;;1.25;;
35330;SDS011;21441;52.190;20.910;2023-02-26T13:35:03;2.83;;;1.35;;
35330;SDS011;21441;52.190;20.910;2023-02-26T13:37:33;1.33;;;0.90;;
35330;SDS011;21441;52.190;20.910;2023-02-26T13:40:15;2.90;;;1.23;;
35330;SDS011;21441;52.190;20.910;2023-02-26T13:42:57;2.45;;;1.23;;
35330;SDS011;21441;52.190;20.910;2023-02-26T13:45:35;3.20;;;1.08;;
35330;SDS011;21441;52.190;20.910;2023-02-26T13:48:15;1.25;;;0.90;;
35330;SDS011;21441;52.190;20.910;2023-02-26T13:50:56;2.70;;;1.27;;
35330;SDS011;21441;52.190;20.910;2023-02-26T13:53:47;3.20;;;1.42;;
35330;SDS011;21441;52.190;20.910;2023-02-26T13:59:24;3.65;;;1.55;;
35330;SDS011;21441;52.190;20.910;2023-02-26T14:01:59;3.80;;;1.50;;
35330;SDS011;21441;52.190;20.910;2023-02-26T14:04:29;1.80;;;1.33;;
35330;SDS011;21441;52.190;20.910;2023-02-26T14:06:58;3.35;;;1.30;;
35330;SDS011;21441;52.190;20.910;2023-02-26T14:09:34;3.20;;;1.50;;
35330;SDS011;21441;52.190;20.910;2023-02-26T14:12:04;2.92;;;1.30;;
35330;SDS011;21441;52.190;20.910;2023-02-26T14:17:47;2.30;;;1.40;;
35330;SDS011;21441;52.190;20.910;2023-02-26T14:20:21;2.70;;;1.20;;
35330;SDS011;21441;52.190;20.910;2023-02-26T14:26:04;3.10;;;1.35;;
35330;SDS011;21441;52.190;20.910;2023-02-26T14:28:42;2.78;;;1.42;;
35330;SDS011;21441;52.190;20.910;2023-02-26T14:31:16;2.60;;;1.40;;
35330;SDS011;21441;52.190;20.910;2023-02-26T14:33:56;2.25;;;1.15;;
35330;SDS011;21441;52.190;20.910;2023-02-26T14:36:31;3.58;;;2.33;;
35330;SDS011;21441;52.190;20.910;2023-02-26T14:39:03;2.63;;;1.60;;
35330;SDS011;21441;52.190;20.910;2023-02-26T14:41:34;2.50;;;1.55;;
35330;SDS011;21441;52.190;20.910;2023-02-26T14:44:07;2.80;;;1.63;;
35330;SDS011;21441;52.190;20.910;2023-02-26T14:46:41;1.80;;;1.50;;
35330;SDS011;21441;52.190;20.910;2023-02-26T14:49:12;1.70;;;1.20;;
35330;SDS011;21441;52.190;20.910;2023-02-26T14:51:48;3.92;;;1.52;;
35330;SDS011;21441;52.190;20.910;2023-02-26T14:54:31;2.55;;;1.30;;
35330;SDS011;21441;52.190;20.910;2023-02-26T14:57:13;3.55;;;1.48;;
35330;SDS011;21441;52.190;20.910;2023-02-26T14:59:52;7.57;;;2.92;;
35330;SDS011;21441;52.190;20.910;2023-02-26T15:02:36;2.42;;;1.60;;
35330;SDS011;21441;52.190;20.910;2023-02-26T15:05:36;2.10;;;1.23;;
35330;SDS011;21441;52.190;20.910;2023-02-26T15:11:24;2.78;;;1.58;;
35330;SDS011;21441;52.190;20.910;2023-02-26T15:14:27;4.50;;;1.90;;
35330;SDS011;21441;52.190;20.910;2023-02-26T15:17:17;3.17;;;1.40;;
35330;SDS011;21441;52.190;20.910;2023-02-26T15:20:03;2.30;;;1.65;;
35330;SDS011;21441;52.190;20.910;2023-02-26T15:22:40;3.45;;;1.52;;
35330;SDS011;21441;52.190;20.910;2023-02-26T15:25:24;2.33;;;1.40;;
35330;SDS011;21441;52.190;20.910;2023-02-26T15:27:55;2.83;;;1.60;;
35330;SDS011;21441;52.190;20.910;2023-02-26T15:30:23;2.88;;;1.65;;
35330;SDS011;21441;52.190;20.910;2023-02-26T15:32:55;2.83;;;1.63;;
35330;SDS011;21441;52.190;20.910;2023-02-26T15:35:25;2.78;;;1.73;;
35330;SDS011;21441;52.190;20.910;2023-02-26T15:37:56;6.57;;;1.92;;